createdAt,value
2023-04-11T00:00:36.658Z,1.75
2023-04-11T00:03:24.570Z,1.55
2023-04-11T00:06:14.427Z,1.52
2023-04-11T00:09:07.311Z,1.60
2023-04-11T00:11:57.442Z,1.60
2023-04-11T00:14:49.145Z,1.88
2023-04-11T00:17:38.809Z,1.48
2023-04-11T00:20:26.063Z,1.58
2023-04-11T00:23:13.257Z,1.50
2023-04-11T00:26:00.445Z,1.98
2023-04-11T00:28:48.000Z,2.03
2023-04-11T00:31:35.757Z,1.77
2023-04-11T00:34:25.682Z,1.67
2023-04-11T00:37:14.276Z,1.90
2023-04-11T00:40:01.750Z,1.80
2023-04-11T00:42:49.014Z,1.60
2023-04-11T00:45:36.862Z,1.65
2023-04-11T00:48:28.323Z,1.70
2023-04-11T00:51:16.008Z,1.80
2023-04-11T00:54:03.721Z,1.90
2023-04-11T00:56:53.704Z,1.60
2023-04-11T00:59:41.820Z,1.70
2023-04-11T01:02:29.780Z,2.05
2023-04-11T01:05:27.102Z,1.60
2023-04-11T01:08:14.968Z,1.90
2023-04-11T01:11:06.796Z,1.73
2023-04-11T01:13:54.817Z,1.58
2023-04-11T01:16:43.878Z,1.58
2023-04-11T01:19:33.200Z,1.60
2023-04-11T01:22:23.223Z,1.70
2023-04-11T01:25:16.101Z,1.70
2023-04-11T01:28:06.224Z,1.48
2023-04-11T01:34:05.497Z,1.38
2023-04-11T01:36:52.778Z,1.80
2023-04-11T01:39:42.128Z,1.52
2023-04-11T01:42:30.779Z,1.90
2023-04-11T01:45:21.331Z,2.10
2023-04-11T01:48:12.491Z,2.53
2023-04-11T01:51:04.825Z,2.03
2023-04-11T01:53:54.607Z,2.00
2023-04-11T01:56:46.695Z,1.90
2023-04-11T01:59:39.037Z,2.17
2023-04-11T02:02:26.487Z,2.22
2023-04-11T02:05:13.814Z,2.30
2023-04-11T02:08:02.310Z,2.30
2023-04-11T02:10:57.099Z,2.25
2023-04-11T02:13:44.258Z,2.45
2023-04-11T02:16:31.406Z,2.40
2023-04-11T02:19:20.859Z,2.72
2023-04-11T02:22:16.408Z,2.70
2023-04-11T02:25:04.207Z,2.60
2023-04-11T02:27:51.970Z,2.42
2023-04-11T02:30:39.644Z,2.60
2023-04-11T02:33:27.234Z,2.63
2023-04-11T02:36:14.484Z,2.03
2023-04-11T02:39:16.331Z,2.05
2023-04-11T02:42:07.802Z,2.35
2023-04-11T02:44:57.645Z,1.50
2023-04-11T02:47:44.933Z,1.35
2023-04-11T02:50:35.021Z,1.10
2023-04-11T02:53:22.287Z,1.27
2023-04-11T02:56:11.374Z,1.38
2023-04-11T02:58:58.901Z,1.30
2023-04-11T03:01:46.329Z,1.52
2023-04-11T03:04:33.888Z,1.15
2023-04-11T03:07:22.330Z,1.00
2023-04-11T03:10:09.682Z,1.30
2023-04-11T03:12:56.850Z,1.50
2023-04-11T03:15:46.479Z,1.20
2023-04-11T03:18:33.924Z,1.25
2023-04-11T03:21:22.822Z,1.60
2023-04-11T03:24:12.870Z,1.58
2023-04-11T03:27:02.832Z,1.40
2023-04-11T03:29:53.050Z,1.27
2023-04-11T03:32:41.106Z,1.58
2023-04-11T03:35:29.648Z,1.60
2023-04-11T03:38:16.867Z,1.20
2023-04-11T03:41:05.109Z,1.15
2023-04-11T03:43:54.952Z,1.65
2023-04-11T03:46:44.504Z,1.30
2023-04-11T03:49:33.710Z,1.30
2023-04-11T03:52:23.996Z,1.75
2023-04-11T03:55:12.194Z,1.58
2023-04-11T03:58:00.451Z,1.40
2023-04-11T04:00:48.282Z,1.30
2023-04-11T04:08:13.184Z,1.40
2023-04-11T04:39:46.317Z,1.02
2023-04-11T04:42:36.255Z,1.20
2023-04-11T04:45:23.553Z,1.20
2023-04-11T04:48:11.753Z,1.00
2023-04-11T04:50:59.341Z,0.93
2023-04-11T04:53:46.556Z,0.88
2023-04-11T04:56:33.695Z,0.75
2023-04-11T04:59:20.947Z,1.08
2023-04-11T05:02:08.228Z,0.90
2023-04-11T05:04:55.715Z,0.80
2023-04-11T05:07:44.466Z,1.00
2023-04-11T05:10:33.813Z,1.20
2023-04-11T05:13:21.340Z,0.70
2023-04-11T05:16:11.412Z,1.00
2023-04-11T05:18:58.625Z,3.47
2023-04-11T05:21:46.982Z,2.03
2023-04-11T05:24:34.095Z,1.05
2023-04-11T05:27:23.787Z,1.42
2023-04-11T05:30:11.542Z,1.30
2023-04-11T05:33:01.265Z,1.25
2023-04-11T05:35:48.636Z,1.40
2023-04-11T05:38:37.200Z,1.48
2023-04-11T05:41:29.783Z,1.45
2023-04-11T11:28:42.261Z,1.80
2023-04-11T14:39:18.552Z,1.23
2023-04-11T14:46:45.248Z,1.52
2023-04-11T14:59:14.903Z,1.88
2023-04-11T15:01:48.311Z,1.70
2023-04-11T15:04:40.227Z,2.10
2023-04-11T15:07:44.294Z,1.83
2023-04-11T15:10:50.342Z,1.80
2023-04-11T15:21:05.727Z,1.75
2023-04-11T15:24:10.042Z,1.70
2023-04-11T15:27:03.522Z,1.48
2023-04-11T15:30:27.011Z,1.45
2023-04-11T15:33:38.780Z,1.55
2023-04-11T15:37:23.046Z,1.90
2023-04-11T15:47:18.443Z,1.52
2023-04-11T15:50:11.068Z,1.52
2023-04-11T15:52:59.197Z,1.77
2023-04-11T15:55:47.449Z,1.65
2023-04-11T16:01:27.009Z,2.03
2023-04-11T16:04:54.285Z,1.58
2023-04-11T16:08:04.228Z,1.83
2023-04-11T16:15:10.264Z,2.53
2023-04-11T16:18:02.608Z,1.77
2023-04-11T16:24:26.203Z,2.10
2023-04-11T16:27:13.811Z,1.58
2023-04-11T16:31:05.176Z,1.40
2023-04-11T17:08:28.027Z,1.80
2023-04-11T17:15:00.584Z,2.65
2023-04-11T17:18:41.652Z,2.70
2023-04-11T17:26:13.854Z,2.22
2023-04-11T17:29:13.732Z,2.35
2023-04-11T17:40:57.603Z,2.38
2023-04-11T17:43:51.331Z,2.80
2023-04-11T17:46:38.748Z,1.90
2023-04-11T17:49:28.955Z,2.90
2023-04-11T17:52:18.498Z,5.55
2023-04-11T17:55:06.629Z,6.30
2023-04-11T17:57:53.982Z,3.30
2023-04-11T18:00:54.834Z,2.03
2023-04-11T18:03:47.440Z,2.10
2023-04-11T18:06:42.145Z,1.50
2023-04-11T18:09:31.955Z,2.58
2023-04-11T18:12:19.378Z,2.30
2023-04-11T18:15:16.963Z,2.28
2023-04-11T18:18:09.799Z,2.55
2023-04-11T18:21:06.482Z,2.17
2023-04-11T18:23:55.371Z,2.00
2023-04-11T18:26:48.523Z,2.05
2023-04-11T18:29:38.092Z,2.38
2023-04-11T18:32:37.185Z,2.30
2023-04-11T18:35:28.303Z,2.13
2023-04-11T18:38:15.854Z,2.22
2023-04-11T18:41:07.272Z,2.63
2023-04-11T18:43:58.680Z,2.22
2023-04-11T18:46:48.303Z,2.47
2023-04-11T18:49:39.035Z,3.63
2023-04-11T18:52:29.779Z,3.38
2023-04-11T18:55:17.088Z,4.47
2023-04-11T18:58:11.841Z,5.18
2023-04-11T19:01:13.964Z,4.10
2023-04-11T19:04:03.840Z,4.30
2023-04-11T19:06:52.574Z,4.22
2023-04-11T19:09:40.628Z,3.90
2023-04-11T19:12:34.931Z,3.55
2023-04-11T19:15:24.652Z,3.38
2023-04-11T19:18:12.369Z,2.92
2023-04-11T19:21:00.347Z,3.40
2023-04-11T19:23:49.281Z,3.10
2023-04-11T19:26:37.066Z,3.15
2023-04-11T19:29:25.352Z,8.82
2023-04-11T19:32:15.432Z,5.88
2023-04-11T19:35:04.477Z,5.70
2023-04-11T19:37:52.351Z,4.43
2023-04-11T19:40:40.467Z,4.35
2023-04-11T19:43:31.718Z,4.38
2023-04-11T19:46:21.562Z,4.13
2023-04-11T19:49:10.897Z,4.63
2023-04-11T19:51:58.509Z,4.15
2023-04-11T19:54:46.567Z,5.28
2023-04-11T19:57:37.108Z,5.97
2023-04-11T20:00:26.542Z,4.32
2023-04-11T20:03:15.770Z,4.18
2023-04-11T20:06:05.841Z,4.07
2023-04-11T20:08:56.943Z,3.17
2023-04-11T20:11:47.213Z,3.40
2023-04-11T20:14:35.118Z,2.83
2023-04-11T20:17:22.929Z,2.88
2023-04-11T20:20:17.567Z,2.42
2023-04-11T20:23:06.265Z,3.03
2023-04-11T20:25:53.668Z,2.83
2023-04-11T20:28:41.781Z,3.13
2023-04-11T20:31:29.535Z,3.90
2023-04-11T20:34:17.140Z,4.95
2023-04-11T20:37:04.988Z,4.07
2023-04-11T20:39:53.784Z,3.10
2023-04-11T20:42:43.740Z,3.10
2023-04-11T20:45:34.440Z,3.90
2023-04-11T20:48:21.874Z,3.15
2023-04-11T20:51:09.973Z,2.63
2023-04-11T20:54:02.253Z,2.63
2023-04-11T20:56:49.844Z,2.75
2023-04-11T20:59:39.340Z,3.20
2023-04-11T21:02:29.919Z,2.70
2023-04-11T21:05:22.060Z,2.58
2023-04-11T21:08:11.576Z,3.03
2023-04-11T21:11:02.491Z,3.95
2023-04-11T21:13:51.119Z,3.33
2023-04-11T21:16:41.897Z,3.38
2023-04-11T21:19:30.646Z,3.63
2023-04-11T21:22:18.244Z,3.22
2023-04-11T21:25:06.932Z,3.72
2023-04-11T21:27:56.079Z,3.58
2023-04-11T21:30:44.025Z,3.42
2023-04-11T21:33:31.932Z,13.70
2023-04-11T21:36:19.311Z,5.43
2023-04-11T21:39:10.288Z,5.75
2023-04-11T21:42:01.425Z,3.50
2023-04-11T21:44:53.321Z,2.78
2023-04-11T21:47:41.362Z,2.80
2023-04-11T21:50:29.555Z,3.00
2023-04-11T21:53:17.103Z,2.70
2023-04-11T21:56:06.805Z,2.63
2023-04-11T21:58:54.843Z,2.88
2023-04-11T22:01:42.292Z,2.88
2023-04-11T22:04:31.775Z,2.63
2023-04-11T22:10:46.663Z,2.42
2023-04-11T22:13:35.076Z,2.90
2023-04-11T22:16:30.500Z,2.58
2023-04-11T22:19:19.033Z,3.40
2023-04-11T22:22:08.392Z,3.22
2023-04-11T22:25:00.640Z,3.78
2023-04-11T22:27:56.794Z,3.63
2023-04-11T22:30:46.779Z,3.45
2023-04-11T22:33:34.014Z,4.25
2023-04-11T22:36:21.589Z,6.93
2023-04-11T22:39:09.629Z,5.10
2023-04-11T22:41:56.982Z,4.15
2023-04-11T22:44:44.385Z,3.63
2023-04-11T22:47:34.601Z,3.33
2023-04-11T22:50:22.213Z,3.60
2023-04-11T22:53:09.801Z,4.03
2023-04-11T22:55:58.440Z,3.13
2023-04-11T22:58:46.086Z,3.17
2023-04-11T23:01:36.355Z,2.75
2023-04-11T23:04:23.985Z,2.63
2023-04-11T23:07:11.973Z,2.28
2023-04-11T23:10:03.286Z,2.83
2023-04-11T23:12:50.872Z,2.47
2023-04-11T23:15:40.875Z,2.45
2023-04-11T23:18:28.580Z,2.22
2023-04-11T23:21:40.531Z,2.78
2023-04-11T23:24:31.746Z,2.38
2023-04-11T23:27:24.523Z,2.75
2023-04-11T23:33:22.159Z,2.65
2023-04-11T23:36:20.950Z,2.67
2023-04-11T23:39:14.489Z,2.67
2023-04-11T23:42:01.820Z,2.80
2023-04-11T23:45:04.862Z,2.63
2023-04-11T23:47:53.067Z,2.75
2023-04-11T23:50:43.836Z,2.42
2023-04-11T23:53:32.118Z,2.90
2023-04-11T23:56:32.101Z,3.20
2023-04-11T23:59:21.460Z,2.90
